Time;durP1;ratioP1;P1;durP2;ratioP2;P2;SDS_P1;SDS_P2;PMS_P1;PMS_P2;Temp;Humidity;BMP_temperature;BMP_pressure;BME280_temperature;BME280_humidity;BME280_pressure;Samples;Min_cycle;Max_cycle;Signal;HPM_P1;HPM_P2
2022/08/01 00:01:13;;;;;;;7.40;6.70;;;;;;;20.05;92.82;100187.94;5103702;28;20478;-65
2022/08/01 00:03:40;;;;;;;8.70;6.60;;;;;;;20.06;92.87;100188.78;5119934;28;20477;-65
2022/08/01 00:06:07;;;;;;;7.27;6.57;;;;;;;19.97;93.00;100190.00;5118526;28;20482;-65
2022/08/01 00:08:34;;;;;;;8.53;6.27;;;;;;;19.93;92.81;100184.97;5119347;28;20430;-65
2022/08/01 00:11:00;;;;;;;6.83;6.23;;;;;;;19.95;92.86;100187.50;5118950;28;20474;-65
2022/08/01 00:13:29;;;;;;;6.80;6.10;;;;;;;19.98;92.18;100191.66;5119699;28;20459;-65
2022/08/01 00:15:55;;;;;;;6.33;5.73;;;;;;;20.01;91.65;100192.09;5118268;28;20470;-65
2022/08/01 00:18:22;;;;;;;9.27;6.37;;;;;;;20.01;91.88;100197.53;5119368;28;20442;-65
2022/08/01 00:20:49;;;;;;;8.30;7.00;;;;;;;19.95;91.81;100192.94;5118714;28;20474;-65
2022/08/01 00:23:16;;;;;;;7.20;6.20;;;;;;;20.06;91.78;100195.03;5119754;28;20443;-64
2022/08/01 00:25:43;;;;;;;8.50;7.13;;;;;;;20.01;91.53;100196.69;5118764;28;20520;-64
2022/08/01 00:28:09;;;;;;;8.80;5.90;;;;;;;20.03;91.10;100187.31;5119434;28;20920;-64
2022/08/01 00:30:38;;;;;;;7.93;6.40;;;;;;;19.91;91.55;100192.50;5118049;28;20491;-65
2022/08/01 00:33:05;;;;;;;9.23;6.47;;;;;;;19.92;91.54;100198.75;5119015;28;20441;-65
2022/08/01 00:35:31;;;;;;;9.77;7.47;;;;;;;19.88;91.50;100198.31;5117404;28;20482;-65
2022/08/01 00:37:58;;;;;;;7.70;6.97;;;;;;;19.95;90.86;100195.63;5119257;28;20473;-65
2022/08/01 00:40:25;;;;;;;8.97;7.33;;;;;;;19.94;90.82;100194.78;5118583;28;20474;-65
2022/08/01 00:42:52;;;;;;;8.00;7.20;;;;;;;19.97;91.10;100195.44;5137937;27;20445;-65
2022/08/01 00:45:18;;;;;;;12.03;7.53;;;;;;;19.78;91.32;100189.72;5135472;27;20458;-65
2022/08/01 00:47:47;;;;;;;8.17;7.37;;;;;;;19.84;90.84;100198.91;5118812;28;20438;-65
2022/08/01 00:50:14;;;;;;;8.00;7.20;;;;;;;19.83;90.80;100192.66;5118327;28;20442;-65
2022/08/01 00:52:41;;;;;;;9.63;7.57;;;;;;;19.72;91.09;100198.63;5119030;28;21093;-65
2022/08/01 00:55:09;;;;;;;9.20;7.70;;;;;;;19.82;90.68;100201.00;5117876;28;20462;-64
2022/08/01 00:57:36;;;;;;;8.07;7.27;;;;;;;19.90;90.40;100192.69;5119366;28;20679;-64
2022/08/01 01:00:03;;;;;;;11.63;7.70;;;;;;;19.94;90.25;100202.09;5118491;28;20568;-64
2022/08/01 01:02:29;;;;;;;8.70;7.67;;;;;;;19.72;90.75;100201.34;5118393;28;20561;-64
2022/08/01 01:04:57;;;;;;;9.77;7.53;;;;;;;19.80;90.86;100198.50;5118852;28;20493;-64
2022/08/01 01:07:32;;;;;;;12.47;8.73;;;;;;;19.81;90.75;100202.88;5118509;28;20475;-64
2022/08/01 01:10:02;;;;;;;10.00;9.00;;;;;;;19.84;90.50;100201.63;5118479;28;20466;-65
2022/08/01 01:12:31;;;;;;;10.40;9.03;;;;;;;19.90;90.29;100198.94;5118162;28;20478;-64
2022/08/01 01:15:03;;;;;;;11.63;9.10;;;;;;;19.78;90.71;100192.44;5118251;28;20457;-64
2022/08/01 01:17:36;;;;;;;11.20;8.90;;;;;;;19.86;90.23;100194.13;5116899;28;20470;-65
2022/08/01 01:20:07;;;;;;;10.70;8.40;;;;;;;19.93;90.06;100200.44;5119117;28;20465;-64
2022/08/01 01:22:52;;;;;;;8.73;7.80;;;;;;;19.94;89.97;100196.66;5118574;28;21278;-64
2022/08/01 01:25:30;;;;;;;14.50;8.50;;;;;;;19.89;90.16;100201.88;5118050;28;20829;-65
2022/08/01 01:28:06;;;;;;;11.57;9.60;;;;;;;19.90;90.18;100206.25;5100147;28;20446;-65
2022/08/01 01:30:35;;;;;;;10.00;8.67;;;;;;;19.92;90.15;100210.44;5117586;28;20477;-65
2022/08/01 01:33:03;;;;;;;9.83;7.70;;;;;;;19.93;89.65;100203.97;5118726;28;20453;-65
2022/08/01 01:35:35;;;;;;;11.60;8.60;;;;;;;19.96;89.71;100207.31;5116879;28;20570;-64
2022/08/01 01:38:06;;;;;;;13.43;9.23;;;;;;;19.88;89.61;100208.34;5118319;28;20473;-65
2022/08/01 01:40:34;;;;;;;11.03;9.20;;;;;;;19.82;90.79;100209.16;5118046;28;20530;-65
2022/08/01 01:43:00;;;;;;;10.60;8.40;;;;;;;19.90;90.04;100209.81;5118449;28;20480;-65
2022/08/01 01:45:28;;;;;;;12.73;9.07;;;;;;;19.82;90.50;100211.84;5116987;28;20481;-65
2022/08/01 01:47:57;;;;;;;9.83;8.03;;;;;;;19.75;91.23;100209.13;5120535;28;20430;-65
2022/08/01 01:50:24;;;;;;;13.67;8.70;;;;;;;19.65;92.04;100211.31;5121896;28;20438;-65
2022/08/01 01:52:52;;;;;;;7.43;6.67;;;;;;;19.57;92.15;100210.47;5122243;28;20815;-65
2022/08/01 01:55:20;;;;;;;9.10;6.63;;;;;;;19.52;91.77;100210.22;5121123;28;20438;-66
2022/08/01 01:57:47;;;;;;;9.70;5.60;;;;;;;19.68;91.11;100203.63;5121175;28;20467;-66
2022/08/01 02:00:15;;;;;;;6.03;5.40;;;;;;;19.73;89.84;100206.56;5121316;28;20450;-65
2022/08/01 02:02:43;;;;;;;6.60;5.47;;;;;;;19.56;90.60;100211.50;5122210;28;20852;-66
2022/08/01 02:05:12;;;;;;;6.67;4.87;;;;;;;19.63;90.39;100210.69;5121535;28;20434;-66
2022/08/01 02:07:40;;;;;;;7.07;4.83;;;;;;;19.63;90.03;100206.09;5119568;28;20438;-66
2022/08/01 02:10:08;;;;;;;5.03;3.97;;;;;;;19.54;89.74;100208.13;5121563;28;20444;-65
2022/08/01 02:12:37;;;;;;;5.57;4.00;;;;;;;19.41;89.91;100215.34;5122149;28;20442;-64
2022/08/01 02:15:06;;;;;;;5.00;4.40;;;;;;;19.43;90.83;100216.03;5121529;28;20446;-65
2022/08/01 02:17:33;;;;;;;4.40;4.00;;;;;;;19.42;90.79;100226.00;5120361;28;20489;-65
2022/08/01 02:20:00;;;;;;;4.70;4.20;;;;;;;19.37;90.95;100226.63;5121871;28;20446;-65
2022/08/01 02:22:31;;;;;;;4.20;3.80;;;;;;;19.41;90.69;100218.06;5121098;28;21314;-65
2022/08/01 02:25:02;;;;;;;5.10;3.90;;;;;;;19.42;90.50;100211.63;5121838;28;20442;-65
2022/08/01 02:27:31;;;;;;;4.33;3.20;;;;;;;19.48;88.74;100217.09;5120828;28;20575;-65
2022/08/01 02:30:00;;;;;;;3.13;2.77;;;;;;;19.53;88.77;100214.63;5121273;28;20475;-65
2022/08/01 02:32:32;;;;;;;5.83;3.47;;;;;;;19.44;89.17;100220.38;5120612;28;20482;-65
2022/08/01 02:35:01;;;;;;;6.03;3.37;;;;;;;19.60;88.77;100217.38;5121897;28;20471;-66
2022/08/01 02:37:32;;;;;;;4.10;3.23;;;;;;;19.53;88.93;100216.50;5120760;28;20481;-66
2022/08/01 02:40:00;;;;;;;6.03;3.10;;;;;;;19.65;88.28;100217.59;5121793;28;20446;-66
2022/08/01 02:42:29;;;;;;;4.10;3.30;;;;;;;19.56;88.41;100222.34;5120364;28;20522;-65
2022/08/01 02:44:56;;;;;;;4.23;3.20;;;;;;;19.51;88.78;100230.25;5120039;28;20450;-64
2022/08/01 02:47:24;;;;;;;4.33;3.17;;;;;;;19.54;88.82;100221.69;5120004;28;20535;-65
2022/08/01 02:49:53;;;;;;;3.80;3.40;;;;;;;19.51;88.57;100221.25;5121523;28;20470;-65
2022/08/01 02:52:21;;;;;;;3.60;2.87;;;;;;;19.51;88.93;100221.25;5120686;28;20531;-65
2022/08/01 02:54:51;;;;;;;3.23;2.77;;;;;;;19.42;89.04;100220.59;5121251;28;20442;-65
2022/08/01 02:57:20;;;;;;;5.10;3.47;;;;;;;19.54;89.05;100224.41;5120204;28;20768;-64
2022/08/01 02:59:47;;;;;;;4.90;3.30;;;;;;;19.47;88.71;100220.81;5119953;28;20442;-64
2022/08/01 03:02:15;;;;;;;3.60;3.30;;;;;;;19.48;89.27;100219.81;5120446;28;20478;-65
2022/08/01 03:04:42;;;;;;;3.93;3.20;;;;;;;19.45;89.24;100220.19;5120392;28;20449;-65
2022/08/01 03:07:10;;;;;;;5.30;3.20;;;;;;;19.38;89.66;100220.16;5120106;28;20470;-64
2022/08/01 03:09:40;;;;;;;3.40;3.10;;;;;;;19.40;89.28;100225.38;5121153;28;20442;-65
2022/08/01 03:12:11;;;;;;;3.87;2.73;;;;;;;19.42;89.26;100222.47;5120503;28;20482;-65
2022/08/01 03:14:40;;;;;;;3.10;2.80;;;;;;;19.52;89.16;100231.09;5120269;28;20450;-65
2022/08/01 03:17:08;;;;;;;4.73;2.90;;;;;;;19.45;89.29;100231.03;5119709;28;20558;-65
2022/08/01 03:19:35;;;;;;;3.37;2.80;;;;;;;19.43;89.01;100226.88;5104343;28;20434;-65
2022/08/01 03:22:03;;;;;;;5.47;2.67;;;;;;;19.37;88.81;100233.91;5120468;28;20474;-65
2022/08/01 03:24:30;;;;;;;4.40;2.97;;;;;;;19.45;88.87;100231.03;5120164;28;20538;-65
2022/08/01 03:26:58;;;;;;;4.00;2.90;;;;;;;19.33;89.28;100224.50;5119922;28;20478;-64
2022/08/01 03:29:27;;;;;;;3.07;2.77;;;;;;;19.37;88.83;100225.75;5120562;28;20430;-65
2022/08/01 03:31:55;;;;;;;4.13;2.90;;;;;;;19.44;88.76;100236.66;5119830;28;20499;-64
2022/08/01 03:34:22;;;;;;;3.80;3.00;;;;;;;19.23;89.63;100235.69;5120059;28;20450;-65
2022/08/01 03:37:05;;;;;;;3.90;3.50;;;;;;;19.30;89.37;100233.03;5119328;28;20498;-65
2022/08/01 03:39:36;;;;;;;4.23;2.83;;;;;;;19.34;89.49;100237.84;5120415;28;20460;-64
2022/08/01 03:42:06;;;;;;;4.10;3.27;;;;;;;19.47;88.99;100238.97;5119050;28;20473;-65
2022/08/01 03:44:38;;;;;;;4.10;2.73;;;;;;;19.36;89.20;100241.22;5119472;28;20789;-65
2022/08/01 03:47:08;;;;;;;5.70;3.70;;;;;;;19.47;88.92;100239.81;5118691;28;20501;-65
2022/08/01 03:49:38;;;;;;;5.70;3.80;;;;;;;19.38;88.97;100247.25;5120599;28;20438;-65
2022/08/01 03:52:07;;;;;;;6.47;4.07;;;;;;;19.25;89.67;100243.63;5119706;28;20470;-64
2022/08/01 03:54:37;;;;;;;6.17;3.40;;;;;;;19.30;89.34;100238.44;5119510;28;20640;-64
2022/08/01 03:57:05;;;;;;;6.00;3.90;;;;;;;19.26;90.11;100245.31;5119377;28;20545;-64
2022/08/01 03:59:33;;;;;;;6.93;4.00;;;;;;;19.24;90.23;100240.09;5120134;28;20430;-64
2022/08/01 04:02:01;;;;;;;4.97;4.00;;;;;;;19.24;90.05;100253.63;5119508;28;20504;-64
2022/08/01 04:04:29;;;;;;;3.97;3.60;;;;;;;19.31;89.69;100248.25;5119216;28;20488;-64
2022/08/01 04:06:56;;;;;;;5.00;4.20;;;;;;;19.25;89.88;100249.91;5119397;28;20462;-64
2022/08/01 04:09:23;;;;;;;8.03;3.90;;;;;;;19.34;89.41;100239.75;5119570;28;20450;-64
2022/08/01 04:11:50;;;;;;;4.90;3.93;;;;;;;19.40;89.09;100246.25;5118245;28;20527;-64
2022/08/01 04:14:17;;;;;;;4.50;3.50;;;;;;;19.42;89.09;100246.88;5119664;28;20451;-64
2022/08/01 04:16:43;;;;;;;6.50;4.40;;;;;;;19.35;89.11;100253.06;5118365;28;20502;-63
2022/08/01 04:19:12;;;;;;;8.80;4.20;;;;;;;19.34;89.09;100254.13;5119447;28;20454;-63
2022/08/01 04:21:39;;;;;;;5.27;3.73;;;;;;;19.40;89.03;100247.06;5118513;28;20574;-64
2022/08/01 04:24:09;;;;;;;4.50;3.70;;;;;;;19.42;88.71;100249.59;5118911;28;20478;-64
2022/08/01 04:26:37;;;;;;;4.37;3.97;;;;;;;19.37;89.15;100255.59;5118918;28;20469;-64
2022/08/01 04:29:05;;;;;;;7.17;4.50;;;;;;;19.33;88.95;100255.16;5119595;28;20439;-64
2022/08/01 04:31:32;;;;;;;5.00;3.70;;;;;;;19.43;88.41;100262.13;5117485;28;20470;-64
2022/08/01 04:34:00;;;;;;;5.67;3.60;;;;;;;19.30;89.08;100273.69;5118949;28;20473;-64
2022/08/01 04:36:29;;;;;;;5.27;4.30;;;;;;;19.34;89.12;100267.69;5107112;28;20511;-64
2022/08/01 04:39:01;;;;;;;7.90;4.77;;;;;;;19.35;88.75;100263.09;5119367;28;20435;-64
2022/08/01 04:41:29;;;;;;;5.43;5.03;;;;;;;19.32;89.16;100275.19;5116786;28;20535;-64
2022/08/01 04:43:56;;;;;;;10.73;5.33;;;;;;;19.55;88.20;100276.78;5118761;28;20446;-64
2022/08/01 04:46:26;;;;;;;6.00;4.83;;;;;;;19.55;88.21;100279.50;5117138;28;20474;-64
2022/08/01 04:48:54;;;;;;;6.60;5.20;;;;;;;19.61;88.30;100280.56;5109297;28;20443;-64
2022/08/01 04:51:22;;;;;;;8.93;5.33;;;;;;;19.64;88.18;100286.44;5111394;28;20900;-64
2022/08/01 04:53:51;;;;;;;6.77;5.53;;;;;;;19.68;88.49;100286.88;5118288;28;20450;-64
2022/08/01 04:56:18;;;;;;;7.30;6.03;;;;;;;19.64;88.31;100285.59;5117758;28;20592;-64
2022/08/01 04:58:45;;;;;;;9.57;7.20;;;;;;;19.51;89.06;100292.63;5117981;28;20446;-64
2022/08/01 05:01:12;;;;;;;7.90;6.30;;;;;;;19.50;89.51;100290.09;5112942;28;20491;-64
2022/08/01 05:03:39;;;;;;;7.00;6.30;;;;;;;19.54;89.71;100297.63;5116215;28;20514;-64
2022/08/01 05:06:06;;;;;;;9.27;7.20;;;;;;;19.53;89.92;100290.53;5116605;28;20477;-64
2022/08/01 05:08:33;;;;;;;11.10;6.53;;;;;;;19.57;89.56;100297.25;5117919;28;20434;-65
2022/08/01 05:11:02;;;;;;;11.50;6.53;;;;;;;19.59;89.52;100297.03;5116969;28;20477;-65
2022/08/01 05:13:28;;;;;;;10.43;7.03;;;;;;;19.65;89.53;100290.84;5117169;28;20485;-65
2022/08/01 05:15:55;;;;;;;7.07;6.37;;;;;;;19.74;89.50;100288.84;5116716;28;20465;-64
2022/08/01 05:18:22;;;;;;;9.43;6.80;;;;;;;19.82;88.83;100287.81;5116759;28;20470;-64
2022/08/01 05:20:51;;;;;;;9.20;7.10;;;;;;;20.09;87.75;100300.47;5116650;28;20588;-63
2022/08/01 05:23:18;;;;;;;7.27;6.53;;;;;;;20.27;86.72;100291.78;5116499;28;20882;-64
2022/08/01 05:25:44;;;;;;;8.97;5.77;;;;;;;20.26;86.33;100294.72;5121052;28;20469;-64
2022/08/01 05:28:14;;;;;;;9.37;5.93;;;;;;;20.38;85.60;100292.22;5121912;28;20442;-65
2022/08/01 05:30:40;;;;;;;12.80;7.20;;;;;;;20.21;85.74;100295.31;5114023;28;20486;-63
2022/08/01 05:33:07;;;;;;;7.13;6.10;;;;;;;20.45;85.53;100296.66;5121834;28;20489;-63
2022/08/01 05:35:34;;;;;;;7.77;6.60;;;;;;;20.44;84.74;100297.69;5135091;27;20492;-63
2022/08/01 05:38:01;;;;;;;8.00;5.40;;;;;;;20.53;84.59;100300.22;5130222;27;20489;-65
2022/08/01 05:40:28;;;;;;;6.30;5.63;;;;;;;20.69;83.50;100303.44;5120892;28;20465;-66
2022/08/01 05:42:55;;;;;;;8.00;6.33;;;;;;;20.40;84.05;100306.47;5105876;28;20451;-66
2022/08/01 05:45:23;;;;;;;7.00;6.13;;;;;;;20.38;85.08;100305.81;5106537;28;20446;-65
2022/08/01 05:47:49;;;;;;;7.43;5.97;;;;;;;20.38;84.35;100306.66;5119828;28;20474;-64
2022/08/01 05:50:16;;;;;;;6.40;5.80;;;;;;;20.54;83.86;100305.47;5119221;28;20453;-65
2022/08/01 05:52:43;;;;;;;6.10;5.50;;;;;;;20.43;83.61;100309.59;5121659;28;20446;-75
2022/08/01 05:55:10;;;;;;;6.27;5.67;;;;;;;20.58;83.34;100311.31;5120285;28;20442;-75
2022/08/01 05:57:37;;;;;;;6.43;5.73;;;;;;;20.60;83.93;100310.06;5120363;28;20465;-76
2022/08/01 06:00:04;;;;;;;7.50;6.40;;;;;;;20.50;83.19;100315.91;5120336;28;20446;-75
2022/08/01 06:02:32;;;;;;;6.10;5.50;;;;;;;20.71;82.50;100316.81;5113720;28;20474;-74
2022/08/01 06:04:59;;;;;;;7.37;5.73;;;;;;;20.73;82.07;100324.75;5120980;28;20454;-75
2022/08/01 06:07:26;;;;;;;5.80;4.80;;;;;;;20.82;81.65;100318.91;5119672;28;20871;-74
2022/08/01 06:09:53;;;;;;;6.77;5.87;;;;;;;20.79;81.73;100323.94;5127582;27;20478;-75
2022/08/01 06:12:20;;;;;;;7.90;5.10;;;;;;;20.85;81.66;100325.84;5140728;27;20468;-75
2022/08/01 06:14:46;;;;;;;6.20;5.60;;;;;;;20.56;82.99;100324.28;5135328;27;20990;-75
2022/08/01 06:17:13;;;;;;;10.57;6.60;;;;;;;20.62;81.98;100329.75;5118473;28;20539;-74
2022/08/01 06:19:42;;;;;;;6.93;6.23;;;;;;;20.71;81.94;100329.53;5119992;28;20498;-74
2022/08/01 06:22:09;;;;;;;6.17;5.57;;;;;;;20.60;82.59;100328.25;5120984;28;20972;-74
2022/08/01 06:24:35;;;;;;;8.07;5.60;;;;;;;20.61;83.04;100344.34;5120409;28;20476;-73
2022/08/01 06:27:03;;;;;;;6.30;5.63;;;;;;;20.71;82.71;100330.41;5125926;27;20469;-74
2022/08/01 06:29:31;;;;;;;10.27;6.33;;;;;;;20.82;82.32;100337.94;5121035;28;20573;-75
2022/08/01 06:31:58;;;;;;;6.43;5.83;;;;;;;20.78;81.33;100342.13;5119637;28;20549;-74
2022/08/01 06:34:25;;;;;;;7.10;6.23;;;;;;;20.90;80.77;100333.34;5118415;28;20454;-75
2022/08/01 06:36:53;;;;;;;5.93;5.33;;;;;;;20.91;80.93;100338.59;5119266;28;20517;-73
2022/08/01 06:39:20;;;;;;;9.10;6.73;;;;;;;20.99;80.02;100340.28;5120381;28;20502;-74
2022/08/01 06:41:47;;;;;;;9.87;6.40;;;;;;;20.60;81.06;100341.81;5117340;28;20507;-73
2022/08/01 06:44:14;;;;;;;7.77;7.07;;;;;;;20.60;81.47;100337.22;5120941;28;20442;-74
2022/08/01 06:46:41;;;;;;;8.00;6.40;;;;;;;20.62;82.18;100337.03;5118628;28;20554;-74
2022/08/01 06:49:08;;;;;;;7.30;6.57;;;;;;;20.70;82.12;100345.03;5119327;28;20977;-74
2022/08/01 06:51:35;;;;;;;6.73;6.13;;;;;;;20.58;81.86;100349.34;5119896;28;20615;-74
2022/08/01 06:54:03;;;;;;;6.90;6.03;;;;;;;20.62;81.45;100359.63;5120629;28;20446;-74
2022/08/01 06:56:30;;;;;;;5.10;4.60;;;;;;;20.54;81.60;100348.91;5118196;28;20474;-75
2022/08/01 06:59:00;;;;;;;3.73;3.27;;;;;;;20.36;79.95;100348.63;5120776;28;20580;-74
2022/08/01 07:01:27;;;;;;;5.43;3.47;;;;;;;20.42;79.96;100350.53;5119323;28;21362;-75
2022/08/01 07:03:54;;;;;;;3.43;3.10;;;;;;;20.16;80.40;100353.97;5120011;28;20446;-74
2022/08/01 07:06:21;;;;;;;2.63;2.43;;;;;;;20.25;79.98;100356.31;5135283;27;20465;-75
2022/08/01 07:08:47;;;;;;;3.20;2.90;;;;;;;19.81;81.60;100346.69;5125181;27;20485;-73
2022/08/01 07:11:15;;;;;;;4.87;3.03;;;;;;;19.69;81.87;100349.06;5119978;28;20465;-73
2022/08/01 07:13:42;;;;;;;4.00;2.90;;;;;;;20.08;81.54;100352.25;5120351;28;20507;-74
2022/08/01 07:16:09;;;;;;;4.80;3.00;;;;;;;20.29;79.77;100351.31;5119837;28;20495;-74
2022/08/01 07:18:35;;;;;;;3.13;2.77;;;;;;;20.24;80.00;100348.34;5120073;28;20462;-74
2022/08/01 07:21:02;;;;;;;4.30;2.97;;;;;;;20.09;80.58;100353.94;5119468;28;20836;-73
2022/08/01 07:23:29;;;;;;;3.03;2.77;;;;;;;20.06;81.48;100354.34;5120236;28;20450;-74
2022/08/01 07:25:56;;;;;;;4.70;2.60;;;;;;;20.27;80.08;100353.38;5119111;28;20478;-73
2022/08/01 07:28:24;;;;;;;3.10;2.50;;;;;;;20.37;79.41;100355.75;5120819;28;20504;-73
2022/08/01 07:30:51;;;;;;;3.03;2.43;;;;;;;20.31;79.59;100362.78;5118406;28;20469;-73
2022/08/01 07:33:17;;;;;;;2.57;2.37;;;;;;;20.39;78.88;100362.63;5118664;28;20450;-72
2022/08/01 07:35:44;;;;;;;3.33;2.00;;;;;;;20.42;77.55;100361.41;5119338;28;20485;-71
2022/08/01 07:38:11;;;;;;;3.17;1.83;;;;;;;20.62;77.40;100370.50;5119645;28;20498;-74
2022/08/01 07:40:37;;;;;;;2.13;1.73;;;;;;;20.78;76.46;100376.59;5117826;28;21046;-74
2022/08/01 07:43:04;;;;;;;2.20;1.70;;;;;;;20.54;76.57;100376.06;5113137;28;20450;-72
2022/08/01 07:45:32;;;;;;;3.20;1.87;;;;;;;20.88;76.01;100369.75;5118372;28;20477;-76
2022/08/01 07:48:03;;;;;;;6.53;2.27;;;;;;;21.22;75.45;100372.50;5116528;28;20507;-76
2022/08/01 07:50:30;;;;;;;1.80;1.70;;;;;;;21.56;74.90;100374.22;5116790;28;20474;-70
2022/08/01 07:52:57;;;;;;;1.77;1.67;;;;;;;21.85;73.96;100373.97;5119267;28;20423;-73
2022/08/01 07:55:23;;;;;;;2.07;1.73;;;;;;;22.32;73.19;100377.44;5118006;28;20442;-72
2022/08/01 07:57:51;;;;;;;2.97;2.20;;;;;;;22.37;72.01;100380.38;5119192;28;20462;-74
2022/08/01 08:00:18;;;;;;;2.30;2.10;;;;;;;22.24;71.52;100386.66;5117079;28;20807;-73
2022/08/01 08:02:46;;;;;;;3.03;2.10;;;;;;;22.49;70.66;100380.53;5117339;28;20522;-74
2022/08/01 08:05:13;;;;;;;6.83;3.00;;;;;;;22.63;70.43;100386.75;5118624;28;20438;-74
2022/08/01 08:07:39;;;;;;;2.80;2.40;;;;;;;22.87;70.00;100390.63;5117370;28;20446;-73
2022/08/01 08:10:07;;;;;;;3.23;2.17;;;;;;;23.04;69.52;100401.88;5117430;28;20469;-74
2022/08/01 08:12:34;;;;;;;3.20;2.10;;;;;;;22.80;70.33;100396.09;5119442;28;20435;-74
2022/08/01 08:15:00;;;;;;;2.13;1.93;;;;;;;22.90;69.73;100390.19;5118376;28;20446;-74
2022/08/01 08:17:28;;;;;;;2.00;1.80;;;;;;;22.96;70.21;100396.66;5117027;28;20513;-75
2022/08/01 08:19:56;;;;;;;2.50;2.30;;;;;;;22.52;71.42;100391.00;5114724;27;20577;-74
2022/08/01 08:22:23;;;;;;;3.53;2.17;;;;;;;22.68;68.91;100397.84;5112581;28;20493;-74
2022/08/01 08:24:50;;;;;;;1.93;1.73;;;;;;;21.69;72.16;100391.59;5118231;28;20457;-74
2022/08/01 08:27:16;;;;;;;2.10;1.70;;;;;;;21.56;73.51;100392.41;5117161;28;20474;-74
2022/08/01 08:29:43;;;;;;;4.70;3.03;;;;;;;22.86;70.05;100394.41;5125079;27;20437;-74
2022/08/01 08:32:10;;;;;;;1.87;1.43;;;;;;;23.12;67.59;100397.00;5137595;27;20487;-74
2022/08/01 08:34:37;;;;;;;1.83;1.53;;;;;;;22.65;68.93;100398.28;5138839;27;20445;-75
2022/08/01 08:37:05;;;;;;;2.30;2.10;;;;;;;23.24;66.00;100396.28;5116053;28;20490;-74
2022/08/01 08:39:32;;;;;;;3.00;1.97;;;;;;;22.42;67.91;100401.53;5117666;28;20482;-74
2022/08/01 08:42:01;;;;;;;3.33;1.50;;;;;;;22.39;67.88;100410.94;5117535;28;20477;-74
2022/08/01 08:44:28;;;;;;;7.80;1.97;;;;;;;22.77;66.82;100406.63;5098702;28;20968;-74
2022/08/01 08:46:56;;;;;;;1.97;1.33;;;;;;;22.31;67.79;100405.75;5111009;28;20500;-74
2022/08/01 08:49:27;;;;;;;2.10;1.90;;;;;;;22.29;67.82;100411.41;5119350;28;20465;-74
2022/08/01 08:51:55;;;;;;;2.50;2.13;;;;;;;22.38;68.62;100412.84;5117992;28;20474;-74
2022/08/01 08:54:24;;;;;;;1.87;1.77;;;;;;;22.12;69.07;100410.16;5118033;28;20957;-73
2022/08/01 08:56:52;;;;;;;3.70;1.60;;;;;;;22.14;69.15;100417.06;5117575;28;20577;-73
2022/08/01 08:59:19;;;;;;;3.27;1.67;;;;;;;21.45;71.51;100421.06;5118656;28;20534;-75
2022/08/01 09:01:46;;;;;;;5.77;1.90;;;;;;;21.39;72.33;100422.72;5117152;28;20489;-74
2022/08/01 09:04:13;;;;;;;2.53;1.60;;;;;;;20.99;73.98;100416.38;5118429;28;20442;-74
2022/08/01 09:06:40;;;;;;;3.10;1.83;;;;;;;21.16;72.63;100416.81;5118225;28;20477;-74
2022/08/01 09:09:08;;;;;;;4.07;2.20;;;;;;;21.10;71.56;100420.38;5118572;28;20474;-74
2022/08/01 09:11:38;;;;;;;2.00;1.70;;;;;;;21.50;69.90;100431.34;5098371;28;20482;-75
2022/08/01 09:14:07;;;;;;;2.97;1.83;;;;;;;21.76;68.27;100439.50;5105035;28;20842;-75
2022/08/01 09:16:35;;;;;;;2.20;1.70;;;;;;;21.76;68.57;100435.97;5116728;28;20474;-72
2022/08/01 09:19:11;;;;;;;3.40;1.70;;;;;;;22.51;68.28;100432.91;5132027;28;20523;-74
2022/08/01 09:21:39;;;;;;;1.43;1.27;;;;;;;23.61;63.82;100440.94;5121194;28;20503;-72
2022/08/01 09:24:14;;;;;;;2.03;1.30;;;;;;;23.63;63.15;100446.19;5133139;28;20496;-69
2022/08/01 09:26:44;;;;;;;1.60;1.30;;;;;;;25.25;58.23;100441.47;5098993;28;20557;-72
2022/08/01 09:29:20;;;;;;;1.10;0.90;;;;;;;25.66;54.17;100450.78;5119137;28;20434;-75
2022/08/01 09:31:49;;;;;;;5.60;1.10;;;;;;;26.15;54.58;100447.88;5117722;28;20501;-72
2022/08/01 09:34:16;;;;;;;1.23;0.80;;;;;;;25.52;54.00;100447.44;5118049;28;20946;-70
2022/08/01 09:36:53;;;;;;;1.60;1.40;;;;;;;25.93;53.87;100442.94;5118133;28;20499;-72
2022/08/01 09:39:21;;;;;;;3.73;1.10;;;;;;;25.53;54.50;100449.06;5117676;28;20596;-72
2022/08/01 09:41:50;;;;;;;2.27;1.30;;;;;;;25.83;51.73;100448.16;5118459;28;20530;-72
2022/08/01 09:44:18;;;;;;;1.20;1.00;;;;;;;25.99;54.13;100444.78;5113858;28;20862;-72
2022/08/01 09:46:53;;;;;;;1.37;0.93;;;;;;;26.73;51.41;100446.94;5116638;28;20478;-72
2022/08/01 09:49:31;;;;;;;1.53;1.17;;;;;;;28.11;47.67;100456.84;5111580;28;20478;-72
2022/08/01 09:51:59;;;;;;;2.60;1.20;;;;;;;28.93;46.49;100455.19;5100292;28;20839;-72
2022/08/01 09:54:30;;;;;;;1.53;1.00;;;;;;;29.23;44.28;100453.88;5097437;28;20475;-72
2022/08/01 09:57:08;;;;;;;2.43;1.00;;;;;;;28.07;45.86;100461.19;5097134;28;20471;-72
2022/08/01 09:59:37;;;;;;;2.80;1.10;;;;;;;26.73;49.33;100443.38;5103449;28;20507;-72
2022/08/01 10:02:04;;;;;;;1.43;0.90;;;;;;;24.90;52.92;100448.47;5117791;28;20481;-72
2022/08/01 10:04:31;;;;;;;1.47;1.00;;;;;;;26.49;51.43;100446.97;5118269;28;20446;-71
2022/08/01 10:07:05;;;;;;;2.30;1.00;;;;;;;25.80;52.82;100448.66;5103390;28;21051;-72
2022/08/01 10:09:34;;;;;;;2.23;1.00;;;;;;;25.29;54.40;100450.91;5121738;28;20456;-72
2022/08/01 10:12:03;;;;;;;1.60;0.70;;;;;;;23.40;58.24;100447.59;5121236;28;20469;-72
2022/08/01 10:14:31;;;;;;;2.50;1.10;;;;;;;23.24;60.24;100454.41;5121189;28;20483;-72
2022/08/01 10:16:59;;;;;;;1.67;0.80;;;;;;;23.56;59.25;100456.28;5120987;28;20470;-72
2022/08/01 10:19:28;;;;;;;1.30;0.90;;;;;;;23.78;59.23;100462.22;5122450;28;20466;-72
2022/08/01 10:21:56;;;;;;;1.20;0.80;;;;;;;23.96;58.04;100464.22;5121263;28;20473;-72
2022/08/01 10:24:25;;;;;;;1.67;0.90;;;;;;;23.26;58.24;100459.63;5133409;27;20449;-72
2022/08/01 10:26:54;;;;;;;1.37;1.07;;;;;;;23.07;59.99;100461.44;5138177;27;20470;-73
2022/08/01 10:29:26;;;;;;;2.80;1.10;;;;;;;24.17;56.29;100466.53;5121639;28;20426;-72
2022/08/01 10:31:52;;;;;;;2.87;1.20;;;;;;;24.44;56.50;100467.09;5119899;28;20474;-72
2022/08/01 10:34:20;;;;;;;4.70;1.30;;;;;;;24.06;57.85;100470.84;5121304;28;20462;-72
2022/08/01 10:36:48;;;;;;;4.10;1.90;;;;;;;24.17;57.43;100469.25;5119717;28;20477;-72
2022/08/01 10:39:15;;;;;;;1.73;1.40;;;;;;;24.32;55.95;100466.19;5120424;28;20472;-72
2022/08/01 10:41:42;;;;;;;3.43;1.20;;;;;;;23.95;57.41;100476.19;5120386;28;20478;-72
2022/08/01 10:44:10;;;;;;;2.63;1.37;;;;;;;24.08;57.09;100472.47;5120162;28;20442;-72
2022/08/01 10:46:39;;;;;;;3.27;1.33;;;;;;;24.14;57.49;100469.69;5119600;28;20680;-73
2022/08/01 10:49:09;;;;;;;2.23;1.50;;;;;;;24.51;54.78;100466.16;5121992;28;20418;-73
2022/08/01 10:51:38;;;;;;;7.20;2.30;;;;;;;24.36;56.69;100464.66;5118954;28;20476;-73
2022/08/01 10:54:07;;;;;;;2.43;1.20;;;;;;;25.00;54.08;100464.34;5121521;28;20461;-72
2022/08/01 10:56:40;;;;;;;2.53;1.27;;;;;;;24.78;53.74;100458.53;5120693;28;20470;-73
2022/08/01 10:59:07;;;;;;;1.83;1.00;;;;;;;24.76;53.23;100453.28;5120030;28;20496;-72
2022/08/01 11:01:34;;;;;;;2.80;1.53;;;;;;;25.02;54.22;100454.00;5137025;27;20494;-72
2022/08/01 11:04:20;;;;;;;2.23;1.50;;;;;;;24.72;53.46;100459.44;5139548;27;20453;-72
2022/08/01 11:06:54;;;;;;;2.33;1.40;;;;;;;24.71;53.46;100464.06;5120117;28;20500;-73
2022/08/01 11:09:28;;;;;;;4.37;1.67;;;;;;;24.46;54.80;100457.81;5121113;28;20437;-73
2022/08/01 11:12:00;;;;;;;3.10;1.73;;;;;;;24.10;55.27;100465.75;5119006;27;21039;-73
2022/08/01 11:14:26;;;;;;;3.43;1.87;;;;;;;23.02;58.64;100464.78;5121354;28;21047;-73
2022/08/01 11:16:53;;;;;;;2.70;2.17;;;;;;;23.66;57.18;100464.81;5119581;28;20480;-72
2022/08/01 11:19:21;;;;;;;3.20;2.60;;;;;;;24.11;56.52;100470.13;5118664;28;20467;-72
2022/08/01 11:22:03;;;;;;;4.50;1.90;;;;;;;24.39;56.32;100469.66;5120188;28;20469;-72
2022/08/01 11:24:56;;;;;;;2.43;2.23;;;;;;;23.25;59.19;100468.91;5120805;28;20458;-72
2022/08/01 11:27:25;;;;;;;4.77;2.13;;;;;;;24.09;56.95;100466.81;5118564;28;20804;-72
2022/08/01 11:30:25;;;;;;;2.00;1.80;;;;;;;24.41;56.85;100472.19;5120845;28;20430;-72